Terminal Aerodrome Forecast
Issued by NWS

Home | Current Version | Previous Version | Text Only | Print | Product List | Glossary On
Versions: 1 2 3 4 5 6 7 8 9 10 11 12 13 14 15 16
000
FTUS43 KDTX 272300
TAFMBS
TAF
KMBS 272320Z 2800/2824 04012KT P6SM -SHRA SCT035 OVC045
      TEMPO 2800/2801 4SM -TSRA BR BKN020CB OVC030
     FM280100 02010KT 5SM -SHRA SCT025 OVC035
     FM280500 36008KT P6SM OVC015
     FM281400 34013G20KT P6SM BKN025 OVC040
     FM281800 34013G20KT P6SM BKN040=

USA.gov is the U.S. government's official web portal to all federal, state and local government web resources and services.